Hlavní strana
METAR-TAF:

METAR-TAF

Letiště :

Kinshasa, Kongo

zeměpisná šířka: 04-23S, zeměpisná délka: 015-26E, výška: 309 m

Aktuální stav počasí

Zpráva byla vytvořena před 43 minutami, v 10:00 UTC
Západní vítr 10 kt
Teplota 30°C
Vlhkost vzduchu 49%
Tlak 1013 hPa
Viditelnost: 8000 m

METAR: FZAA 261000Z 28010KT 8000 NSC 30/18 Q1013 NOSIG

Čas: 11:43 (10:43 UTC)

Předpověď počasí

Zpráva byla vytvořena před 5 hodinami a 43 minutami, v 05:00 UTC
Předpověď platná od 26 v 06 UTC do 27 v 12 UTC
Jihojihozápadní vítr 6 kt
Viditelnost: 7000 m
Polojasno ve výšce 1600 ft
Změna
od 26 v 10 UTC do 26 v 12 UTC
Severoseverozápadní vítr 12 kt
Skoro jasno ve výšce 2000 ft
Skoro jasno ve výšce 3000 ft, Cumulonimbus.
Pravděpodobnost 30% :
Dočasný
od 26 v 20 UTC do 26 v 24 UTC
bouřka
Změna
od 27 v 04 UTC do 27 v 06 UTC
Jihojihozápadní vítr 4 kt
Oblačno až skoro zataženo ve výšce 1800 ft

TAF: FZAA 260500Z 2606/2712 21006KT 7000 SCT016 BECMG 2610/2612 34012KT FEW020 FEW030CB PROB30 TEMPO 2620/2624 TS BECMG 2704/2706 20004KT BKN018

Stav a předpovědi počasí z více než 4 000 letišť (zprávy METAR a TAF).

Červené a žluté tečky na mapě představují dostupné meteorologické stanice.

Když kurzor umístíte na tečku, zobrazí se název stanice.

Pak kliknutím zobrazíte stav a předpověď počasí.

Chcete-li změnit mapu, kliknutím na zelené tlačítko se znaménkem +mapu přiblížíte, kliknutím na zelené tlačítko se znaménkem – mapu oddálíte a kliknutím na zelené šipky přejdete na sousední mapy.


METAR-TAF: